WETTER
   Tageswerte       Wochenwerte       Monatswerte       Jahresübersicht   
 
 
Tageswerte: Tabelle (min / Mittelwert / max)
 
Datum Temperatur
in °C
Luftdruck
in hPa
Luftfeuchte
in % (rel.)
Brunnen-
wasser-
stand in m
Niederschlag
in l/m²
(Summe)
Beleuchtungs-
stärke (max)
in lux
2020-05-29 11:00 – 12:00 0.0 14.5 0.0 0 941 0 0 0 0 0.0 4.1 0.0 0 6400
2020-05-29 10:00 – 11:00 0.0 13.5 0.0 0 941 0 0 0 0 0.0 3.6 0.0 0 4700
2020-05-29 09:00 – 10:00 0.0 12.5 0.0 0 941 0 0 0 0 0.0 3.6 0.0 0 4700
2020-05-29 08:00 – 09:00 0.0 11.4 0.0 0 941 0 0 0 0 0.0 3.4 0.0 0 4100
2020-05-29 07:00 – 08:00 0.0 10.8 0.0 0 941 0 0 0 0 0.0 3.6 0.0 0 1500
2020-05-29 06:00 – 07:00 0.0 10.3 0.0 0 941 0 0 0 0 0.0 3.6 0.0 0 750
2020-05-29 05:00 – 06:00 0.0 9.9 0.0 0 941 0 0 0 0 0.0 3.6 0.0 0 170
2020-05-29 04:00 – 05:00 0.0 9.9 0.0 0 940 0 0 0 0 0.0 4.2 0.0 0 0
2020-05-29 03:00 – 04:00 0.0 9.9 0.0 0 941 0 0 0 0 0.0 3.6 0.0 0 0
2020-05-29 02:00 – 03:00 0.0 9.9 0.0 0 941 0 0 0 0 0.0 3.7 0.0 0 0
2020-05-29 01:00 – 02:00 0.0 10.0 0.0 0 942 0 0 0 0 0.0 3.7 0.0 0 0
2020-05-29 00:00 – 01:00 0.0 10.2 0.0 0 941 0 0 0 0 0.0 3.4 0.0 0 0
2020-05-28 23:00 – 24:00 0.0 10.1 0.0 0 942 0 0 0 0 0.0 3.1 0.0 0 0
2020-05-28 22:00 – 23:00 0.0 9.9 0.0 0 942 0 0 0 0 0.0 2.6 0.0 0 0
2020-05-28 21:00 – 22:00 0.0 10.2 0.0 0 941 0 0 0 0 0.0 3.0 0.0 0 0
2020-05-28 20:00 – 21:00 0.0 10.6 0.0 0 941 0 0 0 0 0.0 3.7 0.0 0 100
2020-05-28 19:00 – 20:00 0.0 11.4 0.0 0 941 0 0 0 0 0.0 3.8 0.0 0 400
2020-05-28 18:00 – 19:00 0.0 12.4 0.0 0 940 0 0 0 0 0.0 3.8 0.0 0 3200
2020-05-28 17:00 – 18:00 0.0 12.1 0.0 0 941 0 0 0 0 0.0 3.8 0.0 0 2600
2020-05-28 16:00 – 17:00 0.0 12.2 0.0 0 941 0 0 0 0 0.0 3.8 0.0 0 1700
2020-05-28 15:00 – 16:00 0.0 12.7 0.0 0 941 0 0 0 0 0.0 6.4 0.0 0 3200
 
   Tabelle       Temperatur       Luftdruck       Luftfeuchte       Brunnenwasserstand       Niederschlag       Lichstärke